Seaspan Chiwan — VRBH3 — position and weather

sailwx.info

Track history (hours):
 
Tides and Currents Weather Stations Pressure Air Temp Water Temp Dewpoint Dewpoint Depression Visibility Wind Speed Wind Dir Waves Ship Positions

Seaspan Chiwan

Last reported at 2016-Feb-14 20:32 UTC. Time now 2016-Feb-14 20:56 UTC.
Position N 37°49' W 122°19'.

Length 260 m; draft 11 m.

Type: Cargo ship. MMSI: 477014500.

Date/timePositionNaut miles runAvg speedWind from/ knotsBaromVisibWave heightAir tempDewpointWater temp
2016-Feb-14 20:32N 37°49' W 122°19'0 0.0
2016-Feb-14 19:32N 37°49' W 122°19'0 0.0
2016-Feb-14 18:32N 37°49' W 122°19'0 0.0
2016-Feb-14 17:32N 37°49' W 122°19'0 0.0
2016-Feb-14 16:32N 37°49' W 122°19'0 0.0
2016-Feb-14 15:32N 37°49' W 122°19'0 0.0
2016-Feb-14 14:32N 37°49' W 122°19'0 0.0
2016-Feb-14 13:33N 37°49' W 122°19'9 8.9
2016-Feb-14 12:33N 37°48' W 122°31'1110.5
2016-Feb-14 11:34N 37°41' W 122°40'1110.7
2016-Feb-14 10:33N 37°30' W 122°39'1111.2
2016-Feb-14 09:34N 37°19' W 122°39'1111.0
2016-Feb-14 08:33N 37°09' W 122°36'1111.3
2016-Feb-14 07:33N 36°58' W 122°31'1111.3
2016-Feb-14 06:34N 36°47' W 122°26'1111.1
2016-Feb-14 05:33N 36°36' W 122°23'1211.5
2016-Feb-14 04:30N 36°25' W 122°17'1111.5
2016-Feb-14 03:33N 36°15' W 122°11'3410.8
2016-Feb-14 00:27N 35°46' W 121°51'3611.4
2016-Feb-13 21:15N 35°15' W 121°28'811.2
2016-Feb-13 20:31N 35°07' W 121°24'1111.1
2016-Feb-13 19:34N 34°58' W 121°17'1111.2
2016-Feb-13 18:34N 34°48' W 121°11'1211.5
2016-Feb-13 17:34N 34°38' W 121°04'1111.4
2016-Feb-13 16:33N 34°29' W 120°57'2311.3
2016-Feb-13 14:33N 34°21' W 120°31'1711.9
2016-Feb-13 13:05N 34°17' W 120°10'712.0
2016-Feb-13 12:32N 34°15' W 120°03'1111.5
2016-Feb-13 11:34N 34°12' W 119°49'1211.5
2016-Feb-13 10:33N 34°09' W 119°36'1211.9
2016-Feb-13 09:34N 34°06' W 119°22'1212.2
2016-Feb-13 08:33N 34°01' W 119°09'1211.6
2016-Feb-13 07:34N 33°55' W 118°57'1313.0
2016-Feb-13 06:33N 33°49' W 118°43'1211.9
2016-Feb-13 05:34N 33°43' W 118°31'1111.4
2016-Feb-13 04:34N 33°39' W 118°18'6 6.0
2016-Feb-13 03:33N 33°44' W 118°15'0 0.1
2016-Feb-13 02:32N 33°44' W 118°15'0 0.0
2016-Feb-13 01:32N 33°44' W 118°15'0 0.0
2016-Feb-13 00:32N 33°44' W 118°15'0 0.0
2016-Feb-12 23:32N 33°44' W 118°15'0 0.0
2016-Feb-12 22:32N 33°44' W 118°15'0 0.0
2016-Feb-12 21:32N 33°44' W 118°15'0 0.0
2016-Feb-12 20:32N 33°44' W 118°15'0 0.0
2016-Feb-12 19:32N 33°44' W 118°15'0 0.0
2016-Feb-12 18:32N 33°44' W 118°15'0 0.0
2016-Feb-12 17:32N 33°44' W 118°15'0 0.0
2016-Feb-12 16:32N 33°44' W 118°15'0 0.0
2016-Feb-12 15:32N 33°44' W 118°15'0 0.0
2016-Feb-12 14:32N 33°44' W 118°15'0 0.1
2016-Feb-12 13:33N 33°44' W 118°15'7 6.7
2016-Feb-12 12:34N 33°38' W 118°12'1211.8
2016-Feb-12 11:34N 33°27' W 118°06'1514.8
2016-Feb-12 10:33N 33°13' W 118°00'1515.3
2016-Feb-12 09:33N 32°59' W 117°54'1515.1
2016-Feb-12 08:34N 32°45' W 117°46'1515.3
2016-Feb-12 07:33N 32°30' W 117°42'1515.5
2016-Feb-12 06:33N 32°15' W 117°38'2015.5
2016-Feb-12 05:16N 31°56' W 117°31'1115.4
2016-Feb-12 04:33N 31°45' W 117°27'  
2016-Feb-07 08:30N 16°27' W 100°18'1414.3
2016-Feb-07 07:33N 16°20' W 100°05'  
Track history (hours):
 
Tides and Currents Weather Stations Pressure Air Temp Water Temp Dewpoint Dewpoint Depression Visibility Wind Speed Wind Dir Waves Ship Positions

Seaspan Chiwan

Last reported at 2016-Feb-14 20:32 UTC. Time now 2016-Feb-14 20:56 UTC.
Position N 37°49' W 122°19'.

Length 260 m; draft 11 m.

Type: Cargo ship. MMSI: 477014500.

Date/timePositionNaut miles runAvg speedWind from/ knotsBaromVisibWave heightAir tempDewpointWater temp
2016-Feb-14 20:32N 37°49' W 122°19'0 0.0
2016-Feb-14 19:32N 37°49' W 122°19'0 0.0
2016-Feb-14 18:32N 37°49' W 122°19'0 0.0
2016-Feb-14 17:32N 37°49' W 122°19'0 0.0
2016-Feb-14 16:32N 37°49' W 122°19'0 0.0
2016-Feb-14 15:32N 37°49' W 122°19'0 0.0
2016-Feb-14 14:32N 37°49' W 122°19'0 0.0
2016-Feb-14 13:33N 37°49' W 122°19'9 8.9
2016-Feb-14 12:33N 37°48' W 122°31'1110.5
2016-Feb-14 11:34N 37°41' W 122°40'1110.7
2016-Feb-14 10:33N 37°30' W 122°39'1111.2
2016-Feb-14 09:34N 37°19' W 122°39'1111.0
2016-Feb-14 08:33N 37°09' W 122°36'1111.3
2016-Feb-14 07:33N 36°58' W 122°31'1111.3
2016-Feb-14 06:34N 36°47' W 122°26'1111.1
2016-Feb-14 05:33N 36°36' W 122°23'1211.5
2016-Feb-14 04:30N 36°25' W 122°17'1111.5
2016-Feb-14 03:33N 36°15' W 122°11'3410.8
2016-Feb-14 00:27N 35°46' W 121°51'3611.4
2016-Feb-13 21:15N 35°15' W 121°28'811.2
2016-Feb-13 20:31N 35°07' W 121°24'1111.1
2016-Feb-13 19:34N 34°58' W 121°17'1111.2
2016-Feb-13 18:34N 34°48' W 121°11'1211.5
2016-Feb-13 17:34N 34°38' W 121°04'1111.4
2016-Feb-13 16:33N 34°29' W 120°57'2311.3
2016-Feb-13 14:33N 34°21' W 120°31'1711.9
2016-Feb-13 13:05N 34°17' W 120°10'712.0
2016-Feb-13 12:32N 34°15' W 120°03'1111.5
2016-Feb-13 11:34N 34°12' W 119°49'1211.5
2016-Feb-13 10:33N 34°09' W 119°36'1211.9
2016-Feb-13 09:34N 34°06' W 119°22'1212.2
2016-Feb-13 08:33N 34°01' W 119°09'1211.6
2016-Feb-13 07:34N 33°55' W 118°57'1313.0
2016-Feb-13 06:33N 33°49' W 118°43'1211.9
2016-Feb-13 05:34N 33°43' W 118°31'1111.4
2016-Feb-13 04:34N 33°39' W 118°18'6 6.0
2016-Feb-13 03:33N 33°44' W 118°15'0 0.1
2016-Feb-13 02:32N 33°44' W 118°15'0 0.0
2016-Feb-13 01:32N 33°44' W 118°15'0 0.0
2016-Feb-13 00:32N 33°44' W 118°15'0 0.0
2016-Feb-12 23:32N 33°44' W 118°15'0 0.0
2016-Feb-12 22:32N 33°44' W 118°15'0 0.0
2016-Feb-12 21:32N 33°44' W 118°15'0 0.0
2016-Feb-12 20:32N 33°44' W 118°15'0 0.0
2016-Feb-12 19:32N 33°44' W 118°15'0 0.0
2016-Feb-12 18:32N 33°44' W 118°15'0 0.0
2016-Feb-12 17:32N 33°44' W 118°15'0 0.0
2016-Feb-12 16:32N 33°44' W 118°15'0 0.0
2016-Feb-12 15:32N 33°44' W 118°15'0 0.0
2016-Feb-12 14:32N 33°44' W 118°15'0 0.1
2016-Feb-12 13:33N 33°44' W 118°15'7 6.7
2016-Feb-12 12:34N 33°38' W 118°12'1211.8
2016-Feb-12 11:34N 33°27' W 118°06'1514.8
2016-Feb-12 10:33N 33°13' W 118°00'1515.3
2016-Feb-12 09:33N 32°59' W 117°54'1515.1
2016-Feb-12 08:34N 32°45' W 117°46'1515.3
2016-Feb-12 07:33N 32°30' W 117°42'1515.5
2016-Feb-12 06:33N 32°15' W 117°38'2015.5
2016-Feb-12 05:16N 31°56' W 117°31'1115.4
2016-Feb-12 04:33N 31°45' W 117°27'  
2016-Feb-07 08:30N 16°27' W 100°18'1414.3
2016-Feb-07 07:33N 16°20' W 100°05'  

Dump ship's entire track history